ěÝzenÝ letovÚho provozu ╚eskÚ republiky
Letiste: LKPJ Aktualizace: 27.02.2020 00:00:26  UTC
 METAR LKPJ 27.02. 00:00 ...
METAR LKPJ 270000Z AUTO 31005KT 9999 SCT028 BKN220 02/M02 Q1002=